Time;durP1;ratioP1;P1;durP2;ratioP2;P2;SDS_P1;SDS_P2;PMS_P1;PMS_P2;Temp;Humidity;BMP_temperature;BMP_pressure;BME280_temperature;BME280_humidity;BME280_pressure;Samples;Min_cycle;Max_cycle;Signal;HPM_P1;HPM_P2
2023/03/30 00:02:22;;;;;;;62.38;24.50;;;7.80;63.20;;;;;;5056028;28;20021;-81
2023/03/30 00:04:51;;;;;;;57.22;23.25;;;7.80;63.00;;;;;;5055709;28;20056;-80
2023/03/30 00:07:18;;;;;;;69.95;25.83;;;7.70;62.90;;;;;;5049240;28;20340;-80
2023/03/30 00:09:45;;;;;;;67.72;25.83;;;7.70;63.20;;;;;;5054732;28;20365;-81
2023/03/30 00:12:14;;;;;;;65.72;25.75;;;7.60;64.00;;;;;;5056017;28;20094;-80
2023/03/30 00:14:41;;;;;;;68.20;23.85;;;7.60;63.80;;;;;;5054645;28;20024;-79
2023/03/30 00:17:08;;;;;;;60.38;25.80;;;7.60;64.00;;;;;;5055667;28;20123;-80
2023/03/30 00:19:38;;;;;;;65.80;26.83;;;7.60;64.20;;;;;;5055324;28;20447;-81
2023/03/30 00:22:06;;;;;;;71.07;24.65;;;7.60;64.80;;;;;;5055877;28;20021;-80
2023/03/30 00:24:32;;;;;;;62.15;25.55;;;7.60;64.70;;;;;;5055878;28;20052;-80
2023/03/30 00:26:58;;;;;;;57.10;23.30;;;7.70;65.10;;;;;;5055737;28;20104;-81
2023/03/30 00:29:24;;;;;;;64.40;24.65;;;7.70;64.20;;;;;;5054419;28;20428;-80
2023/03/30 00:31:50;;;;;;;59.30;22.48;;;7.70;64.30;;;;;;5055443;28;20032;-80
2023/03/30 00:34:16;;;;;;;61.45;23.17;;;7.60;64.70;;;;;;5054995;28;20071;-79
2023/03/30 00:36:42;;;;;;;54.53;23.20;;;7.60;65.00;;;;;;5055510;28;20036;-80
2023/03/30 00:39:07;;;;;;;60.90;23.38;;;7.70;65.10;;;;;;5055211;28;20056;-80
2023/03/30 00:41:35;;;;;;;52.08;20.83;;;7.70;65.20;;;;;;5055371;28;20075;-78
2023/03/30 00:44:45;;;;;;;46.67;19.88;;;7.70;65.00;;;;;;5055247;28;20017;-79
2023/03/30 00:47:12;;;;;;;57.97;20.77;;;7.60;65.50;;;;;;5055105;28;20027;-79
2023/03/30 00:49:38;;;;;;;60.47;22.65;;;7.60;66.50;;;;;;5054632;28;20116;-78
2023/03/30 00:52:04;;;;;;;56.05;20.88;;;7.60;66.20;;;;;;5054399;28;20120;-79
2023/03/30 00:54:30;;;;;;;59.53;22.30;;;7.60;66.10;;;;;;5055391;28;20099;-78
2023/03/30 00:56:55;;;;;;;47.67;19.75;;;7.50;66.40;;;;;;5056021;28;20465;-79
2023/03/30 00:59:21;;;;;;;57.90;21.08;;;7.50;66.60;;;;;;5056220;28;20052;-78
2023/03/30 01:01:48;;;;;;;47.55;18.65;;;7.50;66.30;;;;;;5054253;28;20079;-80
2023/03/30 01:04:19;;;;;;;49.72;18.52;;;7.50;66.10;;;;;;5055741;28;20107;-81
2023/03/30 01:06:48;;;;;;;49.60;19.13;;;7.50;66.00;;;;;;5055208;28;20017;-80
2023/03/30 01:09:15;;;;;;;47.17;19.23;;;7.50;66.40;;;;;;5054849;28;20027;-80
2023/03/30 01:11:45;;;;;;;43.60;18.50;;;7.60;66.40;;;;;;5054719;28;20090;-81
2023/03/30 01:14:13;;;;;;;51.42;19.25;;;7.50;66.40;;;;;;5055269;28;20017;-80
2023/03/30 01:16:39;;;;;;;46.03;17.35;;;7.50;66.80;;;;;;5054332;28;20029;-80
2023/03/30 01:19:39;;;;;;;55.45;21.70;;;7.50;66.20;;;;;;5055426;28;20348;-80
2023/03/30 01:22:13;;;;;;;52.22;20.50;;;7.50;66.60;;;;;;5055426;28;20023;-80
2023/03/30 01:24:52;;;;;;;50.70;19.38;;;7.50;65.80;;;;;;5055742;28;20107;-81
2023/03/30 01:27:20;;;;;;;47.33;18.67;;;7.50;66.30;;;;;;5054262;28;20021;-80
2023/03/30 01:29:52;;;;;;;42.35;16.77;;;7.60;66.30;;;;;;5053686;28;20025;-80
2023/03/30 01:32:30;;;;;;;41.78;18.95;;;7.50;66.90;;;;;;5055182;28;20475;-80
2023/03/30 01:35:15;;;;;;;40.10;16.73;;;7.60;67.30;;;;;;5055081;28;20525;-80
2023/03/30 01:38:22;;;;;;;52.22;21.23;;;7.60;66.10;;;;;;5054947;28;20025;-82
2023/03/30 01:41:12;;;;;;;55.53;19.55;;;7.60;67.00;;;;;;5031899;28;20036;-81
2023/03/30 01:43:55;;;;;;;49.60;19.15;;;7.60;66.80;;;;;;5031983;28;20026;-80
2023/03/30 01:46:31;;;;;;;47.13;19.00;;;7.70;67.30;;;;;;5015576;28;20407;-81
2023/03/30 01:49:11;;;;;;;45.60;18.30;;;7.60;67.00;;;;;;5032130;28;20553;-80
2023/03/30 01:52:30;;;;;;;57.70;19.65;;;7.60;66.70;;;;;;5032170;28;20069;-80
2023/03/30 01:55:07;;;;;;;68.88;23.23;;;7.50;67.80;;;;;;4944073;29;20037;-80
2023/03/30 01:57:53;;;;;;;47.92;19.90;;;7.50;67.10;;;;;;4953332;29;20129;-80
2023/03/30 02:00:22;;;;;;;51.22;16.77;;;7.50;67.40;;;;;;4932129;29;20103;-80
2023/03/30 02:02:53;;;;;;;56.33;19.67;;;7.60;67.60;;;;;;4952890;28;20488;-81
2023/03/30 02:05:21;;;;;;;94.68;31.55;;;7.50;67.00;;;;;;4953486;29;20050;-80
2023/03/30 02:07:53;;;;;;;65.40;22.52;;;7.50;67.60;;;;;;4953688;29;20093;-81
2023/03/30 02:10:20;;;;;;;;;;;7.40;68.30;;;;;;4937392;29;20039;-79
2023/03/30 02:12:46;;;;;;;59.63;20.15;;;7.40;67.90;;;;;;4953049;29;19957;-81
2023/03/30 02:15:15;;;;;;;45.13;17.17;;;7.40;68.30;;;;;;4953291;29;20027;-80
2023/03/30 02:17:42;;;;;;;36.33;16.10;;;7.50;68.80;;;;;;4955034;28;20074;-81
2023/03/30 02:20:09;;;;;;;37.95;15.82;;;7.50;68.70;;;;;;4953993;28;20119;-80
2023/03/30 02:22:35;;;;;;;40.13;16.55;;;7.50;68.30;;;;;;4953795;28;20454;-80
2023/03/30 02:25:01;;;;;;;37.45;16.33;;;7.50;68.90;;;;;;4958678;28;20018;-81
2023/03/30 02:27:27;;;;;;;46.05;17.48;;;7.40;68.90;;;;;;4972348;28;20468;-80
2023/03/30 02:29:55;;;;;;;49.22;21.98;;;7.40;68.50;;;;;;4990801;28;20039;-79
2023/03/30 02:32:27;;;;;;;39.72;16.95;;;7.30;68.50;;;;;;5051931;28;20121;-80
2023/03/30 02:34:52;;;;;;;;;;;7.30;68.50;;;;;;5054166;28;20108;-79
2023/03/30 02:37:36;;;;;;;40.13;16.80;;;7.30;68.00;;;;;;5053297;28;19940;-80
2023/03/30 02:40:14;;;;;;;42.67;15.27;;;7.40;68.20;;;;;;5053357;28;20035;-79
2023/03/30 02:43:11;;;;;;;39.42;15.25;;;7.40;68.60;;;;;;5052299;28;20166;-80
2023/03/30 02:45:50;;;;;;;40.22;16.00;;;7.40;69.80;;;;;;5053220;28;20100;-80
2023/03/30 02:48:38;;;;;;;38.72;14.25;;;7.40;69.70;;;;;;5052353;28;20031;-81
2023/03/30 02:51:20;;;;;;;38.42;15.25;;;7.40;70.40;;;;;;5053714;28;20112;-81
2023/03/30 02:53:50;;;;;;;39.13;16.15;;;7.30;69.60;;;;;;5051834;28;20025;-79
2023/03/30 02:57:00;;;;;;;45.67;16.65;;;7.10;70.00;;;;;;5053247;28;20506;-80
2023/03/30 02:59:52;;;;;;;39.75;16.23;;;7.00;70.70;;;;;;5031114;28;20063;-80
2023/03/30 03:02:44;;;;;;;60.80;30.30;;;7.00;71.80;;;;;;5023243;28;20034;-80
2023/03/30 03:05:13;;;;;;;37.17;14.57;;;6.90;72.70;;;;;;5020762;28;20030;-80
2023/03/30 03:07:40;;;;;;;35.42;13.85;;;6.90;73.20;;;;;;5024496;28;20449;-80
2023/03/30 03:10:07;;;;;;;41.97;16.17;;;6.80;73.40;;;;;;5025962;28;20029;-80
2023/03/30 03:12:33;;;;;;;41.58;15.82;;;6.70;73.40;;;;;;5018767;28;20112;-80
2023/03/30 03:15:03;;;;;;;42.42;16.90;;;6.70;73.80;;;;;;5015431;28;20022;-80
2023/03/30 03:17:33;;;;;;;34.45;17.45;;;6.70;74.00;;;;;;5019257;28;20026;-84
2023/03/30 03:20:01;;;;;;;42.15;17.13;;;6.60;73.80;;;;;;5035954;28;20028;-79
2023/03/30 03:22:27;;;;;;;44.67;16.35;;;6.60;74.20;;;;;;5018663;28;20022;-80
2023/03/30 03:24:53;;;;;;;39.80;15.77;;;6.50;73.80;;;;;;5034003;28;20424;-78
2023/03/30 03:27:18;;;;;;;55.53;22.85;;;6.50;74.30;;;;;;5036208;28;20067;-79
2023/03/30 03:29:44;;;;;;;78.25;28.08;;;6.50;74.60;;;;;;5028238;28;20029;-79
2023/03/30 03:32:10;;;;;;;69.22;24.65;;;6.40;74.60;;;;;;5017494;28;20079;-79
2023/03/30 03:34:36;;;;;;;71.57;27.52;;;6.40;75.10;;;;;;5017313;28;20026;-79
2023/03/30 03:37:01;;;;;;;59.88;20.92;;;6.40;74.90;;;;;;5018388;28;20156;-80
2023/03/30 03:39:27;;;;;;;64.70;19.98;;;6.30;75.80;;;;;;5025466;28;20029;-79
2023/03/30 03:41:53;;;;;;;44.78;18.13;;;6.30;76.50;;;;;;5025948;28;20037;-80
2023/03/30 03:44:19;;;;;;;42.97;17.55;;;6.30;76.60;;;;;;5001924;28;20080;-79
2023/03/30 03:46:44;;;;;;;45.97;18.52;;;6.20;76.80;;;;;;5028232;28;20025;-80
2023/03/30 03:49:10;;;;;;;50.55;19.45;;;6.20;77.40;;;;;;5019380;28;20096;-79
2023/03/30 03:51:36;;;;;;;48.15;19.02;;;6.20;77.70;;;;;;5017638;28;20041;-80
2023/03/30 03:54:02;;;;;;;50.33;19.48;;;6.10;77.70;;;;;;5016186;28;20447;-79
2023/03/30 03:56:28;;;;;;;48.08;19.15;;;6.10;78.50;;;;;;5016786;28;20033;-80
2023/03/30 03:58:54;;;;;;;46.80;18.10;;;6.10;79.10;;;;;;5046927;28;20044;-80
2023/03/30 04:01:19;;;;;;;48.72;20.23;;;6.10;78.70;;;;;;5055758;28;20028;-80
2023/03/30 04:03:45;;;;;;;47.25;18.25;;;6.10;78.90;;;;;;5055367;28;20021;-80
2023/03/30 04:06:11;;;;;;;43.10;18.23;;;6.00;79.50;;;;;;5055601;28;20020;-80
2023/03/30 04:08:36;;;;;;;54.15;19.85;;;6.00;79.90;;;;;;5055528;28;20025;-80
2023/03/30 04:11:07;;;;;;;51.50;20.33;;;5.90;80.40;;;;;;5056197;28;20029;-80
2023/03/30 04:13:34;;;;;;;55.30;19.57;;;5.90;80.90;;;;;;5055518;28;20021;-80
2023/03/30 04:16:00;;;;;;;52.20;22.05;;;5.90;80.90;;;;;;5056311;28;20709;-80
2023/03/30 04:18:32;;;;;;;51.50;18.35;;;5.80;81.20;;;;;;5056137;28;20446;-79
2023/03/30 04:21:01;;;;;;;;;;;5.80;81.80;;;;;;5056000;28;20017;-80
2023/03/30 04:23:30;;;;;;;57.53;19.90;;;5.80;82.20;;;;;;5055978;28;19900;-80
2023/03/30 04:26:06;;;;;;;52.42;17.98;;;5.80;82.90;;;;;;5054580;28;20029;-80
2023/03/30 04:28:34;;;;;;;52.90;18.08;;;5.80;83.70;;;;;;5056239;28;20029;-79
2023/03/30 04:31:02;;;;;;;57.55;19.63;;;5.70;83.60;;;;;;5054897;28;20447;-80
2023/03/30 04:33:28;;;;;;;60.90;21.15;;;5.80;84.60;;;;;;5055133;28;20074;-79
2023/03/30 04:35:53;;;;;;;61.67;21.50;;;5.80;85.30;;;;;;5054898;28;20021;-80
2023/03/30 04:38:22;;;;;;;71.53;24.00;;;5.80;86.60;;;;;;5056289;28;20032;-79
2023/03/30 04:40:49;;;;;;;70.60;22.63;;;5.80;86.90;;;;;;5056098;28;20021;-79
2023/03/30 04:43:18;;;;;;;74.63;24.73;;;5.80;87.60;;;;;;5056293;28;20021;-79
2023/03/30 04:45:55;;;;;;;70.65;24.17;;;5.80;88.30;;;;;;5054627;28;20025;-79
2023/03/30 04:48:22;;;;;;;77.78;29.35;;;5.80;89.10;;;;;;5055861;28;20460;-80
2023/03/30 04:50:49;;;;;;;90.72;29.70;;;5.80;89.40;;;;;;5054974;28;20032;-80
2023/03/30 04:53:17;;;;;;;84.22;28.77;;;5.80;90.40;;;;;;5054445;28;20396;-79
2023/03/30 04:55:47;;;;;;;75.63;28.70;;;5.80;91.20;;;;;;5055022;28;20024;-80
2023/03/30 04:58:13;;;;;;;75.75;27.73;;;5.90;91.70;;;;;;5054949;28;20528;-80
2023/03/30 05:00:40;;;;;;;78.28;29.42;;;5.90;92.40;;;;;;5056011;28;20025;-79
2023/03/30 05:03:06;;;;;;;69.10;27.27;;;6.00;93.60;;;;;;5054623;28;20078;-79
2023/03/30 05:05:31;;;;;;;60.97;25.73;;;6.00;93.50;;;;;;5055256;28;20017;-80
2023/03/30 05:07:58;;;;;;;60.55;23.23;;;6.20;94.00;;;;;;5055741;28;20075;-79
2023/03/30 05:10:24;;;;;;;70.30;27.08;;;6.20;94.40;;;;;;5055697;28;20017;-79
2023/03/30 05:12:53;;;;;;;97.38;33.63;;;6.30;94.50;;;;;;5055361;28;20471;-79
2023/03/30 05:15:19;;;;;;;114.10;38.75;;;6.40;94.50;;;;;;5055596;28;20032;-79
2023/03/30 05:17:45;;;;;;;120.03;42.97;;;6.50;94.10;;;;;;5055603;28;20041;-80
2023/03/30 05:20:10;;;;;;;121.32;45.05;;;6.50;94.20;;;;;;5055444;28;20337;-79
2023/03/30 05:22:36;;;;;;;116.97;43.95;;;6.60;94.80;;;;;;5054339;28;20021;-79
2023/03/30 05:25:03;;;;;;;107.43;41.65;;;6.70;95.20;;;;;;5055791;28;20076;-79
2023/03/30 05:27:29;;;;;;;119.93;44.95;;;6.80;94.20;;;;;;5053738;28;20017;-79
2023/03/30 05:29:55;;;;;;;121.13;45.05;;;7.00;94.40;;;;;;5055402;28;20043;-79
2023/03/30 05:32:21;;;;;;;115.78;45.10;;;7.00;94.00;;;;;;5054019;28;20044;-80
2023/03/30 05:34:47;;;;;;;121.15;48.95;;;7.00;93.90;;;;;;5054957;28;20019;-79
2023/03/30 05:37:13;;;;;;;115.28;45.63;;;7.00;93.60;;;;;;5055027;28;20108;-79
2023/03/30 05:39:40;;;;;;;137.73;50.63;;;7.00;93.60;;;;;;5054594;28;20025;-80
2023/03/30 05:42:06;;;;;;;118.25;48.88;;;7.00;93.50;;;;;;5054776;28;20024;-79
2023/03/30 05:44:32;;;;;;;123.88;47.40;;;7.00;93.30;;;;;;5053790;28;20463;-79
2023/03/30 05:46:58;;;;;;;101.25;37.85;;;7.10;93.50;;;;;;5053828;28;20027;-79
2023/03/30 05:49:23;;;;;;;76.53;31.83;;;7.10;93.00;;;;;;5054503;28;20100;-79
2023/03/30 05:51:49;;;;;;;80.70;32.72;;;7.20;92.80;;;;;;5054927;28;20033;-80
2023/03/30 05:54:15;;;;;;;70.82;29.95;;;7.30;93.40;;;;;;5054522;28;20139;-79
2023/03/30 05:56:41;;;;;;;54.45;23.45;;;7.40;92.90;;;;;;5054898;28;20029;-79
2023/03/30 05:59:08;;;;;;;43.22;20.35;;;7.50;91.50;;;;;;5054508;28;20045;-79
2023/03/30 06:01:35;;;;;;;46.03;20.50;;;7.50;91.00;;;;;;5053370;28;20551;-79
2023/03/30 06:04:01;;;;;;;62.05;23.27;;;7.60;90.70;;;;;;5054421;28;20078;-79
2023/03/30 06:06:27;;;;;;;53.13;22.35;;;7.70;91.00;;;;;;5053368;28;20078;-78
2023/03/30 06:08:52;;;;;;;60.75;23.70;;;7.90;90.90;;;;;;5054384;28;20028;-80
2023/03/30 06:11:18;;;;;;;56.40;27.17;;;8.00;90.70;;;;;;5054570;28;20475;-79
2023/03/30 06:13:44;;;;;;;55.03;25.45;;;8.10;91.00;;;;;;5054268;28;20028;-79
2023/03/30 06:16:10;;;;;;;66.63;25.25;;;8.30;90.70;;;;;;5054143;28;20100;-80
2023/03/30 06:18:36;;;;;;;52.83;24.73;;;8.40;90.20;;;;;;5053334;28;20031;-80
2023/03/30 06:21:05;;;;;;;54.65;23.42;;;8.60;90.00;;;;;;5054450;28;20033;-80
2023/03/30 06:23:32;;;;;;;56.38;23.83;;;8.80;88.50;;;;;;5054374;28;20013;-80
2023/03/30 06:25:58;;;;;;;51.08;21.80;;;8.90;89.00;;;;;;5053060;28;20032;-80
2023/03/30 06:28:24;;;;;;;49.80;21.52;;;9.00;86.40;;;;;;5052980;28;20439;-80
2023/03/30 06:30:50;;;;;;;56.67;23.00;;;9.10;86.00;;;;;;5054206;28;20074;-80
2023/03/30 06:33:17;;;;;;;56.78;24.38;;;9.30;84.50;;;;;;5054132;28;20021;-80
2023/03/30 06:35:47;;;;;;;54.53;22.83;;;9.50;83.00;;;;;;5054401;28;20040;-80
2023/03/30 06:38:14;;;;;;;56.92;22.00;;;9.70;83.00;;;;;;5052434;28;20035;-79
2023/03/30 06:40:40;;;;;;;51.75;23.95;;;9.90;81.30;;;;;;5052824;28;20021;-80
2023/03/30 06:43:07;;;;;;;47.38;21.42;;;9.90;80.80;;;;;;5053557;28;20021;-80
2023/03/30 06:45:33;;;;;;;63.85;25.50;;;10.20;83.20;;;;;;5052617;28;20123;-80
2023/03/30 06:47:58;;;;;;;49.83;20.42;;;10.40;81.90;;;;;;5052557;28;20162;-80
2023/03/30 06:50:24;;;;;;;46.55;20.25;;;10.60;80.00;;;;;;5052828;28;20248;-81
2023/03/30 06:52:50;;;;;;;57.42;22.45;;;10.80;79.60;;;;;;5053636;28;20418;-82
2023/03/30 06:55:16;;;;;;;60.53;21.63;;;11.10;78.60;;;;;;5054057;28;20032;-81
2023/03/30 06:57:42;;;;;;;44.65;19.42;;;11.20;77.10;;;;;;5053512;28;20371;-79
2023/03/30 07:00:12;;;;;;;46.38;18.35;;;11.30;76.50;;;;;;5052797;28;20041;-81
2023/03/30 07:02:42;;;;;;;41.00;19.23;;;11.40;74.90;;;;;;5052305;28;20128;-81
2023/03/30 07:05:08;;;;;;;43.38;17.98;;;11.70;74.30;;;;;;5053229;28;20367;-83
2023/03/30 07:07:35;;;;;;;37.13;17.75;;;11.60;72.60;;;;;;5052514;28;20111;-82
2023/03/30 07:10:08;;;;;;;44.28;17.88;;;11.60;70.70;;;;;;5052985;28;20067;-81
2023/03/30 07:12:35;;;;;;;43.15;16.77;;;11.60;70.20;;;;;;5050823;28;20029;-80
2023/03/30 07:15:01;;;;;;;40.42;17.65;;;11.50;69.50;;;;;;5051160;28;20028;-80
2023/03/30 07:17:26;;;;;;;32.28;14.65;;;11.70;69.30;;;;;;5050900;28;20363;-80
2023/03/30 07:19:53;;;;;;;41.22;15.80;;;12.10;72.00;;;;;;5052028;28;20051;-82
2023/03/30 07:22:18;;;;;;;30.35;13.60;;;12.30;69.10;;;;;;5052410;28;20029;-81
2023/03/30 07:24:44;;;;;;;31.92;12.93;;;12.50;67.70;;;;;;5052489;28;20025;-80
2023/03/30 07:27:10;;;;;;;42.38;17.50;;;12.70;65.70;;;;;;5050963;28;20447;-79
2023/03/30 07:29:36;;;;;;;29.92;12.98;;;12.90;65.90;;;;;;5051858;28;20040;-82
2023/03/30 07:32:02;;;;;;;29.45;12.90;;;13.20;64.10;;;;;;5051941;28;20021;-81
2023/03/30 07:34:28;;;;;;;28.05;10.93;;;13.50;63.70;;;;;;5052506;28;20025;-81
2023/03/30 07:36:54;;;;;;;30.13;13.18;;;13.40;61.10;;;;;;5053536;28;20478;-81
2023/03/30 07:39:20;;;;;;;34.92;15.02;;;13.60;60.70;;;;;;5052521;28;20033;-82
2023/03/30 07:41:46;;;;;;;114.30;79.60;;;13.60;60.60;;;;;;5052131;28;20455;-81
2023/03/30 07:44:12;;;;;;;37.67;20.38;;;13.80;59.70;;;;;;5053131;28;20024;-81
2023/03/30 07:46:38;;;;;;;38.33;18.52;;;14.10;60.10;;;;;;5053041;28;20021;-82
2023/03/30 07:49:03;;;;;;;32.33;13.82;;;14.40;56.10;;;;;;5053329;28;20029;-79
2023/03/30 07:51:29;;;;;;;26.00;10.82;;;14.50;57.90;;;;;;5053385;28;20363;-82
2023/03/30 07:53:55;;;;;;;23.00;10.23;;;14.40;55.80;;;;;;5052104;28;20021;-80
2023/03/30 07:56:21;;;;;;;23.80;10.43;;;14.30;56.50;;;;;;5053357;28;20444;-82
2023/03/30 07:58:47;;;;;;;26.85;10.98;;;14.10;55.90;;;;;;5051634;28;20472;-81
2023/03/30 08:01:12;;;;;;;22.08;9.55;;;14.20;55.60;;;;;;5053431;28;20476;-82
2023/03/30 08:03:38;;;;;;;21.52;10.20;;;14.40;55.70;;;;;;5055433;28;20025;-79
2023/03/30 08:06:05;;;;;;;23.75;10.38;;;14.50;54.30;;;;;;5057285;28;20021;-81
2023/03/30 08:08:32;;;;;;;28.90;11.98;;;14.90;53.70;;;;;;5056947;28;20025;-84
2023/03/30 08:10:58;;;;;;;25.17;11.50;;;15.40;56.00;;;;;;5056592;28;20017;-81
2023/03/30 08:13:24;;;;;;;43.70;22.27;;;15.60;53.80;;;;;;5056828;28;20014;-82
2023/03/30 08:15:51;;;;;;;25.90;10.55;;;15.80;55.40;;;;;;5055585;28;20017;-82
2023/03/30 08:18:17;;;;;;;24.02;10.30;;;15.90;52.80;;;;;;5056455;28;20024;-82
2023/03/30 08:20:44;;;;;;;18.60;8.70;;;16.10;52.10;;;;;;5056714;28;20036;-82
2023/03/30 08:23:11;;;;;;;28.13;9.50;;;16.10;50.90;;;;;;5055536;28;20029;-82
2023/03/30 08:25:37;;;;;;;15.55;7.47;;;16.10;49.00;;;;;;5055258;28;20455;-82
2023/03/30 08:28:04;;;;;;;15.25;7.20;;;16.20;49.60;;;;;;5055409;28;20115;-82
2023/03/30 08:30:30;;;;;;;23.38;9.95;;;16.10;49.40;;;;;;5056618;28;20099;-81
2023/03/30 08:32:57;;;;;;;19.10;8.48;;;16.40;49.80;;;;;;5054930;28;20452;-81
2023/03/30 08:35:22;;;;;;;7.50;3.28;;;16.60;49.40;;;;;;5055171;28;20452;-81
2023/03/30 08:37:49;;;;;;;13.32;4.28;;;16.60;42.90;;;;;;5055104;28;20028;-82
2023/03/30 08:40:16;;;;;;;47.20;20.05;;;16.80;46.20;;;;;;5054720;28;20119;-80
2023/03/30 08:43:03;;;;;;;19.52;8.57;;;17.10;47.60;;;;;;5056366;28;20028;-82
2023/03/30 08:45:37;;;;;;;15.40;5.82;;;17.60;42.70;;;;;;5056333;28;20017;-83
2023/03/30 08:48:10;;;;;;;13.63;6.13;;;17.80;42.80;;;;;;5056089;28;20020;-83
2023/03/30 08:50:36;;;;;;;7.80;3.30;;;17.70;44.10;;;;;;5054955;28;20017;-83
2023/03/30 08:53:06;;;;;;;18.10;7.50;;;17.80;42.90;;;;;;5056026;28;20028;-81
2023/03/30 08:55:55;;;;;;;9.40;5.65;;;18.10;41.40;;;;;;5055070;28;20021;-84
2023/03/30 08:58:26;;;;;;;7.03;3.40;;;18.40;41.20;;;;;;5056154;28;20091;-80
2023/03/30 09:00:59;;;;;;;7.75;4.10;;;18.70;41.30;;;;;;5055701;28;20096;-83
2023/03/30 09:03:36;;;;;;;5.95;3.13;;;19.10;43.00;;;;;;5054623;28;20027;-82
2023/03/30 09:06:48;;;;;;;9.80;3.30;;;19.10;36.80;;;;;;5055934;28;20100;-81
2023/03/30 09:09:18;;;;;;;8.43;2.08;;;19.20;38.00;;;;;;5053415;28;20430;-82
2023/03/30 09:11:47;;;;;;;6.53;2.47;;;19.20;36.50;;;;;;5054463;28;20025;-82
2023/03/30 09:14:47;;;;;;;11.65;4.78;;;19.00;36.90;;;;;;5053887;28;20024;-82
2023/03/30 09:17:31;;;;;;;8.82;3.97;;;18.70;39.30;;;;;;5055451;28;20029;-81
2023/03/30 09:20:02;;;;;;;9.95;5.68;;;18.30;39.10;;;;;;5055669;28;20027;-84
2023/03/30 09:22:37;;;;;;;6.18;2.10;;;18.00;39.00;;;;;;5054079;28;20029;-83
2023/03/30 09:25:16;;;;;;;13.48;3.40;;;17.50;40.90;;;;;;5055580;28;20052;-84
2023/03/30 09:27:56;;;;;;;10.25;4.10;;;17.40;41.50;;;;;;5053863;28;20021;-83
2023/03/30 09:30:30;;;;;;;14.82;5.75;;;17.20;41.50;;;;;;5054141;28;20029;-82
2023/03/30 09:33:24;;;;;;;11.32;3.80;;;17.20;42.00;;;;;;5054127;28;20052;-81
2023/03/30 09:36:20;;;;;;;10.18;4.10;;;17.10;42.20;;;;;;5054700;28;20075;-82
2023/03/30 09:38:45;;;;;;;5.57;2.22;;;17.10;42.20;;;;;;5050685;28;20071;-82
2023/03/30 09:41:20;;;;;;;13.13;4.63;;;17.10;43.10;;;;;;5055205;28;20025;-81
2023/03/30 09:43:48;;;;;;;6.60;2.83;;;17.10;42.30;;;;;;5054889;28;20025;-80
2023/03/30 09:46:15;;;;;;;17.35;5.68;;;16.80;41.50;;;;;;5054800;28;20019;-81
2023/03/30 09:48:44;;;;;;;26.23;7.63;;;16.90;42.40;;;;;;5053334;28;20029;-81
2023/03/30 09:51:27;;;;;;;25.20;10.52;;;17.10;42.20;;;;;;5055009;28;20027;-84
2023/03/30 09:54:02;;;;;;;14.52;5.55;;;17.20;42.00;;;;;;5055127;28;20447;-80
2023/03/30 09:56:34;;;;;;;10.70;3.28;;;17.30;42.30;;;;;;5054639;28;20017;-80
2023/03/30 09:59:27;;;;;;;25.52;9.15;;;17.30;41.00;;;;;;5053327;28;20075;-82
2023/03/30 10:02:07;;;;;;;;;;;17.30;41.00;;;;;;5054165;28;20363;-81
2023/03/30 10:04:33;;;;;;;6.60;2.83;;;17.40;41.00;;;;;;5053162;28;19995;-82
2023/03/30 10:06:58;;;;;;;6.78;2.38;;;17.70;41.10;;;;;;5053365;28;20056;-83
2023/03/30 10:09:24;;;;;;;7.03;2.45;;;17.70;40.50;;;;;;5053338;28;20060;-81
2023/03/30 10:11:53;;;;;;;3.83;1.98;;;17.80;44.10;;;;;;5054031;28;20448;-82
2023/03/30 10:14:35;;;;;;;11.70;2.92;;;17.90;39.70;;;;;;5053318;28;20039;-83
2023/03/30 10:17:03;;;;;;;15.52;7.32;;;18.30;39.60;;;;;;5053046;28;20024;-82
2023/03/30 10:19:31;;;;;;;9.00;5.05;;;18.40;39.60;;;;;;5053221;28;20028;-82
2023/03/30 10:22:03;;;;;;;10.50;4.63;;;19.10;40.30;;;;;;5053155;28;20120;-82
2023/03/30 10:24:31;;;;;;;6.00;2.40;;;19.60;39.00;;;;;;5053340;28;20017;-82
2023/03/30 10:27:12;;;;;;;3.50;2.00;;;19.70;36.70;;;;;;5054410;28;20082;-82
2023/03/30 10:29:45;;;;;;;8.05;3.00;;;19.70;37.00;;;;;;5054368;28;20025;-82
2023/03/30 10:32:16;;;;;;;25.10;7.55;;;20.00;37.20;;;;;;5053027;28;20111;-81
2023/03/30 10:34:45;;;;;;;15.20;6.47;;;20.10;33.80;;;;;;5053084;28;20362;-81
2023/03/30 10:37:18;;;;;;;6.32;3.15;;;19.90;36.20;;;;;;5053045;28;20021;-81
2023/03/30 10:39:46;;;;;;;7.47;2.25;;;20.10;36.10;;;;;;5053613;28;20079;-81
2023/03/30 10:42:19;;;;;;;10.90;2.53;;;20.20;35.60;;;;;;5052852;28;20461;-82
2023/03/30 10:44:52;;;;;;;27.30;11.15;;;20.40;36.60;;;;;;5053761;28;20049;-81
2023/03/30 10:47:39;;;;;;;18.58;7.97;;;20.50;34.50;;;;;;5054077;28;20025;-82
2023/03/30 10:50:17;;;;;;;9.07;2.95;;;20.50;35.20;;;;;;5053659;28;20459;-84
2023/03/30 10:53:14;;;;;;;12.10;4.30;;;20.60;34.80;;;;;;5053917;28;20021;-82
2023/03/30 10:56:08;;;;;;;6.70;2.30;;;20.60;35.40;;;;;;5052894;28;20363;-83
2023/03/30 10:59:04;;;;;;;10.15;4.28;;;21.40;34.30;;;;;;5052149;28;20052;-83
2023/03/30 11:01:45;;;;;;;6.25;3.58;;;22.50;78.70;;;;;;5053843;28;20025;-81
2023/03/30 11:04:57;;;;;;;7.20;3.42;;;22.40;32.30;;;;;;5053751;28;20111;-81
2023/03/30 11:07:28;;;;;;;7.38;2.33;;;22.50;31.00;;;;;;5031053;28;20092;-82
2023/03/30 11:09:59;;;;;;;14.25;6.50;;;22.20;31.90;;;;;;5031521;28;20037;-83
2023/03/30 11:12:34;;;;;;;5.68;2.72;;;22.60;31.30;;;;;;5014881;28;20026;-83
2023/03/30 11:15:02;;;;;;;3.38;1.73;;;22.80;31.50;;;;;;5015238;28;20056;-85
2023/03/30 11:17:29;;;;;;;5.10;2.13;;;22.40;29.90;;;;;;5014914;28;20025;-85
2023/03/30 11:19:58;;;;;;;6.15;2.30;;;21.70;32.00;;;;;;5014548;28;20053;-83
2023/03/30 11:22:42;;;;;;;5.75;1.75;;;21.50;32.70;;;;;;5014808;28;20033;-85
2023/03/30 11:25:22;;;;;;;5.93;2.00;;;21.60;33.50;;;;;;5014966;28;20018;-83
2023/03/30 11:28:08;;;;;;;10.20;3.83;;;21.80;31.60;;;;;;5014450;28;20495;-82
2023/03/30 11:30:35;;;;;;;5.18;1.85;;;22.20;32.10;;;;;;5014858;28;20037;-84
2023/03/30 11:33:28;;;;;;;4.70;1.98;;;22.10;32.50;;;;;;5014793;28;20537;-84
2023/03/30 11:36:02;;;;;;;10.57;2.92;;;21.70;31.00;;;;;;5015896;28;20037;-83
2023/03/30 11:38:43;;;;;;;12.68;4.07;;;22.40;32.00;;;;;;5018729;28;20123;-85
2023/03/30 11:41:27;;;;;;;8.13;2.53;;;22.40;31.20;;;;;;5045829;28;20033;-83
2023/03/30 11:43:54;;;;;;;17.75;4.05;;;22.30;30.60;;;;;;5057472;28;20100;-84
2023/03/30 11:46:39;;;;;;;13.40;4.90;;;21.90;32.50;;;;;;5056098;28;20021;-83
2023/03/30 11:49:18;;;;;;;10.95;4.35;;;;;;;;;;5057007;28;20108;-84
2023/03/30 11:51:48;;;;;;;6.97;1.92;;;23.20;31.00;;;;;;5056058;28;20487;-84
2023/03/30 11:54:48;;;;;;;6.40;2.33;;;23.20;77.60;;;;;;5056936;28;20032;-83
2023/03/30 11:57:15;;;;;;;9.80;3.15;;;;;;;;;;5056634;28;20021;-83
2023/03/30 12:00:07;;;;;;;8.88;3.55;;;23.40;29.20;;;;;;5056208;28;20021;-85
2023/03/30 12:02:49;;;;;;;6.88;2.40;;;;;;;;;;5055568;28;20031;-83
2023/03/30 12:05:15;;;;;;;6.10;1.92;;;23.80;28.90;;;;;;5055818;28;20017;-86
2023/03/30 12:08:00;;;;;;;9.15;2.55;;;24.10;28.70;;;;;;5055371;28;20021;-83
2023/03/30 12:10:41;;;;;;;13.77;4.95;;;24.30;29.60;;;;;;5055250;28;20032;-84
2023/03/30 12:13:15;;;;;;;6.33;2.60;;;23.60;28.70;;;;;;5055642;28;20021;-83
2023/03/30 12:15:54;;;;;;;6.90;3.40;;;;;;;;;;5056223;28;20096;-83
2023/03/30 12:18:48;;;;;;;8.73;2.40;;;23.80;28.70;;;;;;5055481;28;20032;-84
2023/03/30 12:21:23;;;;;;;5.00;2.55;;;23.80;29.80;;;;;;5057002;28;20483;-83
2023/03/30 12:23:53;;;;;;;19.63;9.15;;;24.40;29.50;;;;;;5056330;28;20081;-84
2023/03/30 12:26:36;;;;;;;8.07;4.30;;;24.40;28.80;;;;;;5056851;28;20013;-83
2023/03/30 12:29:11;;;;;;;11.70;5.15;;;24.60;28.40;;;;;;5055083;28;20064;-81
2023/03/30 12:32:02;;;;;;;9.82;4.00;;;24.70;28.30;;;;;;5054947;28;20021;-80
2023/03/30 12:34:40;;;;;;;5.32;2.53;;;24.70;28.90;;;;;;5054665;28;20025;-82
2023/03/30 12:37:35;;;;;;;4.75;2.30;;;24.60;27.50;;;;;;5051533;28;20029;-80
2023/03/30 12:40:19;;;;;;;5.57;2.00;;;24.60;29.20;;;;;;5051671;28;20039;-80
2023/03/30 12:43:23;;;;;;;7.85;2.42;;;24.30;27.10;;;;;;5053807;28;20017;-78
2023/03/30 12:46:00;;;;;;;8.43;2.60;;;;;;;;;;5053857;28;20026;-79
2023/03/30 12:48:33;;;;;;;5.13;2.58;;;;;;;;;;5053223;28;20017;-79
2023/03/30 12:51:05;;;;;;;3.83;2.28;;;;;;;;;;5055054;28;20013;-79
2023/03/30 12:53:55;;;;;;;4.47;2.08;;;24.50;29.40;;;;;;5055331;28;20084;-79
2023/03/30 12:56:25;;;;;;;4.90;1.92;;;24.20;28.10;;;;;;5055283;28;20083;-82
2023/03/30 12:59:11;;;;;;;5.50;1.80;;;;;;;;;;5054070;28;20068;-82
2023/03/30 13:02:21;;;;;;;5.20;1.90;;;24.20;28.40;;;;;;5048976;28;20086;-82
2023/03/30 13:04:48;;;;;;;7.30;2.22;;;;;;;;;;5042141;28;20029;-83
2023/03/30 13:07:22;;;;;;;3.50;1.95;;;24.70;27.80;;;;;;5053949;28;20032;-82